Aeroporto :
LOGIN :

Iscrizione | Disclaimer

   EN    FR    IT 

 










Sommario :    VFR   VFR Marginale   IFR   IFR Intensivo   IFR Molto Intensivo
Visibilità : 
Base nubi : 
>= 8 km
>= 3000ft
5 / 8 km
1000 / 3000 ft
1500m / 5 km
500 / 1000 ft
800 / 1500m
200 / 500 ft
< 800m
< 200 ft
Simboli :   Temporali  Nebbia  Neve Forte  Precipitazioni Forti  Vento > 20 kt
SIGMETs :   Varie  Temporali  Ghiacco  Turbolenza  Onda orograficha  Ceneri Vulcaniche






- Altitudine del aeroporto : 284 ft


EGUW - RAF Wattisham

ULTIMO METAR :
  • 240902Z 24010KT 9999 BKN006 14/14 Q1015 BECMG FEW007 RMK YLO1 BECMG BLU

METARs OBSOLETI :
  • 240837Z 23011KT 5000 BR BKN003 13/13 Q1015 BECMG 9999 NSW FEW007 RMK YLO2 BECMG BLU
  • 240824Z 24008KT 3800 BR BKN002 13/13 Q1015 BECMG 6000 BR SCT007 RMK AMB BECMG GRN
  • 240806Z 24010KT 1200 BR BKN002 13/13 Q1015 BECMG 6000 BR SCT007 RMK AMB BECMG GRN
  • 240750Z 24009KT 0400 FG OVC001 12/12 Q1015 BECMG 6000 BR SCT007 RMK RED BECMG GRN
  • 240650Z 24007KT 0200 FG OVC000 11/11 Q1015 BECMG 3000 BR SCT003 RMK RED BECMG YLO2

TAF TAF EGUW
Valido dal 24 a 09 ore il 24 a 18 ore UTC


240734Z 2409/2418 23009KT 6000 BR SCT007
BECMG 2409/2411 9999 NSW FEW007



MetMap, La meteo Aeronautica in un colpo d'occhio ! - Copyright ORBIFLY Dicembre 2007 - Disclaimer

ORBIFLY MET'MAP TEAM :

Programmazione e sviluppo : Alexandra Zaïnal
Concezione : Baudouin d'Aumeries
Aiuto per la programmazione : Marc-Olivier Méhu
Supporto tecnico e logistico : Manuel Goepfert
Aiuto per la traduzione : Arnaldo La Scala

Contatto : metmap@orbifly.com




FONTI E CREDITI :

   NOAA